LCPH/PFO METAR and TAF weather

Enter ICAO airport designator
Station Type Date Time Source
LCPH METAR 2020/08/06 01:00 UTC NOAA

LCPH 060100Z AUTO 35007KT 9999 NCD 24/22 Q1004


Station Type Date Time Source
LCPH Decoded METAR 2020/08/06 01:00 UTC NOAA

Paphos Airport, Cyprus (LCPH) 34-43N 032-29E 8M
Aug 05, 2020 - 09:00 PM EDT / 2020.08.06 0100 UTC
Wind: from the N (350 degrees) at 8 MPH (7 KT):0
Visibility: greater than 7 mile(s):0
Temperature: 75 F (24 C)
Dew Point: 71 F (22 C)
Relative Humidity: 88%
Pressure (altimeter): 29.65 in. Hg (1004 hPa)
ob: LCPH 060100Z AUTO 35007KT 9999 NCD 24/22 Q1004
cycle: 1

Station Type Date Time Source
LCPH TAF 2020/08/05 18:30 UTC NOAA

TAF LCPH 051730Z 0518/0618 29010KT 9999 SCT015
BECMG 0519/0522 35007KT PROB30 0600/0605 BKN007
BECMG 0607/0610 27012KT

Example: see airport list